sensor_id;sensor_type;location;lat;lon;timestamp;pressure;altitude;pressure_sealevel;temperature;humidity
21357;BME280;10836;53.068;18.234;2023-03-26T00:01:23;99600.00;;;6.14;100.00
21357;BME280;10836;53.068;18.234;2023-03-26T00:03:52;99605.13;;;6.10;100.00
21357;BME280;10836;53.068;18.234;2023-03-26T00:06:25;99601.63;;;6.05;100.00
21357;BME280;10836;53.068;18.234;2023-03-26T00:08:55;99597.84;;;6.06;100.00
21357;BME280;10836;53.068;18.234;2023-03-26T00:11:25;99602.69;;;6.09;100.00
21357;BME280;10836;53.068;18.234;2023-03-26T00:13:53;99592.66;;;6.09;100.00
21357;BME280;10836;53.068;18.234;2023-03-26T00:16:25;99595.66;;;6.08;100.00
21357;BME280;10836;53.068;18.234;2023-03-26T00:18:52;99587.00;;;6.06;100.00
21357;BME280;10836;53.068;18.234;2023-03-26T00:21:21;99598.94;;;5.99;100.00
21357;BME280;10836;53.068;18.234;2023-03-26T00:23:55;99581.84;;;5.94;100.00
21357;BME280;10836;53.068;18.234;2023-03-26T00:26:25;99590.50;;;5.91;100.00
21357;BME280;10836;53.068;18.234;2023-03-26T00:28:53;99582.59;;;5.79;100.00
21357;BME280;10836;53.068;18.234;2023-03-26T00:31:20;99574.47;;;5.74;100.00
21357;BME280;10836;53.068;18.234;2023-03-26T00:33:49;99574.75;;;5.78;100.00
21357;BME280;10836;53.068;18.234;2023-03-26T00:36:21;99572.31;;;5.76;100.00
21357;BME280;10836;53.068;18.234;2023-03-26T00:38:48;99581.50;;;5.75;100.00
21357;BME280;10836;53.068;18.234;2023-03-26T00:41:20;99578.25;;;5.73;100.00
21357;BME280;10836;53.068;18.234;2023-03-26T00:43:58;99569.34;;;5.78;100.00
21357;BME280;10836;53.068;18.234;2023-03-26T00:46:27;99576.38;;;5.79;100.00
21357;BME280;10836;53.068;18.234;2023-03-26T00:48:55;99573.13;;;5.77;100.00
21357;BME280;10836;53.068;18.234;2023-03-26T00:51:27;99562.00;;;5.73;100.00
21357;BME280;10836;53.068;18.234;2023-03-26T00:53:55;99567.44;;;5.73;100.00
21357;BME280;10836;53.068;18.234;2023-03-26T00:56:23;99565.53;;;5.68;100.00
21357;BME280;10836;53.068;18.234;2023-03-26T00:58:50;99563.09;;;5.62;100.00
21357;BME280;10836;53.068;18.234;2023-03-26T01:01:22;99562.03;;;5.63;100.00
21357;BME280;10836;53.068;18.234;2023-03-26T01:03:55;99566.88;;;5.56;100.00
21357;BME280;10836;53.068;18.234;2023-03-26T01:06:38;99558.50;;;5.57;100.00
21357;BME280;10836;53.068;18.234;2023-03-26T01:09:17;99558.22;;;5.59;100.00
21357;BME280;10836;53.068;18.234;2023-03-26T01:11:46;99553.34;;;5.66;100.00
21357;BME280;10836;53.068;18.234;2023-03-26T01:14:16;99553.88;;;5.68;100.00
21357;BME280;10836;53.068;18.234;2023-03-26T01:16:47;99552.53;;;5.71;100.00
21357;BME280;10836;53.068;18.234;2023-03-26T01:19:26;99554.16;;;5.72;100.00
21357;BME280;10836;53.068;18.234;2023-03-26T01:21:56;99549.00;;;5.75;100.00
21357;BME280;10836;53.068;18.234;2023-03-26T01:24:23;99550.09;;;5.74;100.00
21357;BME280;10836;53.068;18.234;2023-03-26T01:27:03;99556.59;;;5.83;100.00
21357;BME280;10836;53.068;18.234;2023-03-26T01:29:57;99552.00;;;5.79;100.00
21357;BME280;10836;53.068;18.234;2023-03-26T01:32:36;99541.44;;;5.87;100.00
21357;BME280;10836;53.068;18.234;2023-03-26T01:40:44;99538.50;;;5.89;100.00
21357;BME280;10836;53.068;18.234;2023-03-26T01:43:33;99544.72;;;5.89;100.00
21357;BME280;10836;53.068;18.234;2023-03-26T01:46:05;99538.19;;;5.85;100.00
21357;BME280;10836;53.068;18.234;2023-03-26T01:48:35;99543.59;;;5.85;100.00
21357;BME280;10836;53.068;18.234;2023-03-26T01:51:03;99540.88;;;5.80;100.00
21357;BME280;10836;53.068;18.234;2023-03-26T01:53:32;99539.00;;;5.76;100.00
21357;BME280;10836;53.068;18.234;2023-03-26T01:59:02;99544.13;;;5.67;100.00
21357;BME280;10836;53.068;18.234;2023-03-26T02:01:38;99544.13;;;5.67;100.00
21357;BME280;10836;53.068;18.234;2023-03-26T02:04:25;99537.06;;;5.66;100.00
21357;BME280;10836;53.068;18.234;2023-03-26T02:07:02;99529.50;;;5.73;100.00
21357;BME280;10836;53.068;18.234;2023-03-26T02:09:38;99524.09;;;5.73;100.00
21357;BME280;10836;53.068;18.234;2023-03-26T02:12:08;99528.44;;;5.79;100.00
21357;BME280;10836;53.068;18.234;2023-03-26T02:14:35;99534.94;;;5.83;100.00
21357;BME280;10836;53.068;18.234;2023-03-26T02:17:02;99527.91;;;5.87;100.00
21357;BME280;10836;53.068;18.234;2023-03-26T02:19:29;99525.50;;;5.91;100.00
21357;BME280;10836;53.068;18.234;2023-03-26T02:21:56;99530.09;;;5.90;100.00
21357;BME280;10836;53.068;18.234;2023-03-26T02:24:28;99523.06;;;5.99;100.00
21357;BME280;10836;53.068;18.234;2023-03-26T02:26:56;99513.84;;;6.00;100.00
21357;BME280;10836;53.068;18.234;2023-03-26T02:29:24;99521.41;;;6.09;100.00
21357;BME280;10836;53.068;18.234;2023-03-26T02:31:52;99529.78;;;6.17;100.00
21357;BME280;10836;53.068;18.234;2023-03-26T02:34:19;99519.75;;;6.18;100.00
21357;BME280;10836;53.068;18.234;2023-03-26T02:36:49;99524.09;;;6.14;100.00
21357;BME280;10836;53.068;18.234;2023-03-26T02:39:16;99517.59;;;6.10;100.00
21357;BME280;10836;53.068;18.234;2023-03-26T02:41:51;99510.59;;;5.98;100.00
21357;BME280;10836;53.068;18.234;2023-03-26T02:44:19;99519.75;;;5.87;100.00
21357;BME280;10836;53.068;18.234;2023-03-26T02:46:58;99508.38;;;5.80;100.00
21357;BME280;10836;53.068;18.234;2023-03-26T02:49:48;99508.13;;;5.77;100.00
21357;BME280;10836;53.068;18.234;2023-03-26T02:52:22;99511.09;;;5.75;100.00
21357;BME280;10836;53.068;18.234;2023-03-26T02:54:51;99505.66;;;5.70;100.00
21357;BME280;10836;53.068;18.234;2023-03-26T02:57:22;99507.03;;;5.73;100.00
21357;BME280;10836;53.068;18.234;2023-03-26T03:00:14;99506.22;;;5.72;100.00
21357;BME280;10836;53.068;18.234;2023-03-26T03:02:44;99502.97;;;5.70;100.00
21357;BME280;10836;53.068;18.234;2023-03-26T03:05:32;99495.91;;;5.69;100.00
21357;BME280;10836;53.068;18.234;2023-03-26T03:08:14;99508.38;;;5.70;100.00
21357;BME280;10836;53.068;18.234;2023-03-26T03:11:10;99497.81;;;5.79;100.00
21357;BME280;10836;53.068;18.234;2023-03-26T03:13:46;99492.41;;;5.79;100.00
21357;BME280;10836;53.068;18.234;2023-03-26T03:16:20;99492.66;;;5.77;100.00
21357;BME280;10836;53.068;18.234;2023-03-26T03:18:47;99487.53;;;5.81;100.00
21357;BME280;10836;53.068;18.234;2023-03-26T03:21:31;99503.50;;;5.82;100.00
21357;BME280;10836;53.068;18.234;2023-03-26T03:23:58;99505.13;;;5.88;100.00
21357;BME280;10836;53.068;18.234;2023-03-26T03:26:30;99496.78;;;5.90;100.00
21357;BME280;10836;53.068;18.234;2023-03-26T03:29:06;99495.97;;;5.89;100.00
21357;BME280;10836;53.068;18.234;2023-03-26T03:31:34;99482.66;;;5.88;100.00
21357;BME280;10836;53.068;18.234;2023-03-26T03:34:04;99485.13;;;5.89;100.00
21357;BME280;10836;53.068;18.234;2023-03-26T03:36:35;99494.84;;;5.85;100.00
21357;BME280;10836;53.068;18.234;2023-03-26T03:39:22;99494.84;;;5.75;100.00
21357;BME280;10836;53.068;18.234;2023-03-26T03:41:49;99497.00;;;5.68;100.00
21357;BME280;10836;53.068;18.234;2023-03-26T03:44:16;99497.81;;;5.74;100.00
21357;BME280;10836;53.068;18.234;2023-03-26T03:46:45;99486.72;;;5.80;100.00
21357;BME280;10836;53.068;18.234;2023-03-26T03:49:12;99496.19;;;5.83;100.00
21357;BME280;10836;53.068;18.234;2023-03-26T03:51:39;99492.13;;;5.80;100.00
21357;BME280;10836;53.068;18.234;2023-03-26T03:54:18;99499.72;;;5.78;100.00
21357;BME280;10836;53.068;18.234;2023-03-26T03:56:45;99494.56;;;5.82;100.00
21357;BME280;10836;53.068;18.234;2023-03-26T03:59:33;99494.03;;;5.85;100.00
21357;BME280;10836;53.068;18.234;2023-03-26T04:02:03;99488.34;;;5.81;100.00
21357;BME280;10836;53.068;18.234;2023-03-26T04:04:37;99490.50;;;5.79;100.00
21357;BME280;10836;53.068;18.234;2023-03-26T04:07:08;99491.03;;;5.76;100.00
21357;BME280;10836;53.068;18.234;2023-03-26T04:09:55;99488.63;;;5.85;100.00
21357;BME280;10836;53.068;18.234;2023-03-26T04:12:26;99488.88;;;5.88;100.00
21357;BME280;10836;53.068;18.234;2023-03-26T04:15:00;99486.16;;;5.88;100.00
21357;BME280;10836;53.068;18.234;2023-03-26T04:17:27;99487.81;;;5.89;100.00
21357;BME280;10836;53.068;18.234;2023-03-26T04:19:56;99480.78;;;5.93;100.00
21357;BME280;10836;53.068;18.234;2023-03-26T04:22:28;99482.91;;;5.86;100.00
21357;BME280;10836;53.068;18.234;2023-03-26T04:25:02;99486.97;;;5.84;100.00
21357;BME280;10836;53.068;18.234;2023-03-26T04:27:51;99479.13;;;5.82;100.00
21357;BME280;10836;53.068;18.234;2023-03-26T04:30:41;99484.00;;;5.75;100.00
21357;BME280;10836;53.068;18.234;2023-03-26T04:33:33;99474.78;;;5.76;100.00
21357;BME280;10836;53.068;18.234;2023-03-26T04:36:01;99477.78;;;5.75;100.00
21357;BME280;10836;53.068;18.234;2023-03-26T04:38:39;99478.31;;;5.72;100.00
21357;BME280;10836;53.068;18.234;2023-03-26T04:41:10;99477.50;;;5.71;100.00
21357;BME280;10836;53.068;18.234;2023-03-26T04:43:52;99477.50;;;5.71;100.00
21357;BME280;10836;53.068;18.234;2023-03-26T04:46:25;99476.97;;;5.74;100.00
21357;BME280;10836;53.068;18.234;2023-03-26T04:49:03;99473.72;;;5.72;100.00
21357;BME280;10836;53.068;18.234;2023-03-26T04:51:35;99467.22;;;5.78;100.00
21357;BME280;10836;53.068;18.234;2023-03-26T04:54:13;99466.66;;;5.76;100.00
21357;BME280;10836;53.068;18.234;2023-03-26T04:56:54;99462.59;;;5.79;100.00
21357;BME280;10836;53.068;18.234;2023-03-26T04:59:26;99467.75;;;5.80;100.00
21357;BME280;10836;53.068;18.234;2023-03-26T05:01:57;99467.47;;;5.82;100.00
21357;BME280;10836;53.068;18.234;2023-03-26T05:04:28;99465.59;;;5.82;100.00
21357;BME280;10836;53.068;18.234;2023-03-26T05:06:57;99464.50;;;5.83;100.00
21357;BME280;10836;53.068;18.234;2023-03-26T05:09:32;99472.63;;;5.83;100.00
21357;BME280;10836;53.068;18.234;2023-03-26T05:12:15;99468.56;;;5.86;100.00
21357;BME280;10836;53.068;18.234;2023-03-26T05:15:12;99470.75;;;5.89;100.00
21357;BME280;10836;53.068;18.234;2023-03-26T05:18:00;99469.38;;;5.86;100.00
21357;BME280;10836;53.068;18.234;2023-03-26T05:20:49;99473.16;;;5.85;100.00
21357;BME280;10836;53.068;18.234;2023-03-26T05:23:16;99471.28;;;5.86;100.00
21357;BME280;10836;53.068;18.234;2023-03-26T05:25:59;99476.41;;;5.87;100.00
21357;BME280;10836;53.068;18.234;2023-03-26T05:28:26;99469.38;;;5.86;100.00
21357;BME280;10836;53.068;18.234;2023-03-26T05:30:58;99458.25;;;5.88;100.00
21357;BME280;10836;53.068;18.234;2023-03-26T05:33:30;99467.50;;;5.92;100.00
21357;BME280;10836;53.068;18.234;2023-03-26T05:36:08;99465.88;;;5.91;100.00
21357;BME280;10836;53.068;18.234;2023-03-26T05:38:36;99467.25;;;5.93;100.00
21357;BME280;10836;53.068;18.234;2023-03-26T05:41:07;99466.16;;;5.94;100.00
21357;BME280;10836;53.068;18.234;2023-03-26T05:43:39;99477.53;;;5.91;100.00
21357;BME280;10836;53.068;18.234;2023-03-26T05:46:11;99467.25;;;5.93;100.00
21357;BME280;10836;53.068;18.234;2023-03-26T05:48:39;99463.72;;;5.98;100.00
21357;BME280;10836;53.068;18.234;2023-03-26T05:51:07;99471.84;;;6.03;100.00
21357;BME280;10836;53.068;18.234;2023-03-26T05:53:35;99470.44;;;6.11;100.00
21357;BME280;10836;53.068;18.234;2023-03-26T05:56:31;99468.28;;;6.13;100.00
21357;BME280;10836;53.068;18.234;2023-03-26T05:59:24;99474.78;;;6.17;100.00
21357;BME280;10836;53.068;18.234;2023-03-26T06:02:11;99487.25;;;6.08;100.00
21357;BME280;10836;53.068;18.234;2023-03-26T06:04:38;99476.97;;;6.05;100.00
21357;BME280;10836;53.068;18.234;2023-03-26T06:07:27;99466.09;;;6.15;100.00
21357;BME280;10836;53.068;18.234;2023-03-26T06:10:08;99473.13;;;6.26;100.00
21357;BME280;10836;53.068;18.234;2023-03-26T06:12:36;99480.16;;;6.37;100.00
21357;BME280;10836;53.068;18.234;2023-03-26T06:15:05;99473.06;;;6.46;100.00
21357;BME280;10836;53.068;18.234;2023-03-26T06:17:42;99475.97;;;6.70;100.00
21357;BME280;10836;53.068;18.234;2023-03-26T06:20:30;99478.81;;;6.94;100.00
21357;BME280;10836;53.068;18.234;2023-03-26T06:22:57;99479.56;;;7.05;100.00
21357;BME280;10836;53.068;18.234;2023-03-26T06:25:43;99472.66;;;6.78;100.00
21357;BME280;10836;53.068;18.234;2023-03-26T06:28:31;99478.97;;;6.63;100.00
21357;BME280;10836;53.068;18.234;2023-03-26T06:31:33;99471.91;;;6.62;100.00
21357;BME280;10836;53.068;18.234;2023-03-26T06:34:21;99473.53;;;6.63;100.00
21357;BME280;10836;53.068;18.234;2023-03-26T06:36:48;99481.44;;;6.55;100.00
21357;BME280;10836;53.068;18.234;2023-03-26T06:39:19;99484.38;;;6.63;100.00
21357;BME280;10836;53.068;18.234;2023-03-26T06:42:02;99486.03;;;6.54;100.00
21357;BME280;10836;53.068;18.234;2023-03-26T06:44:44;99482.25;;;6.55;100.00
21357;BME280;10836;53.068;18.234;2023-03-26T06:47:30;99483.31;;;6.59;100.00
21357;BME280;10836;53.068;18.234;2023-03-26T06:50:29;99492.59;;;6.48;100.00
21357;BME280;10836;53.068;18.234;2023-03-26T06:53:33;99491.78;;;6.48;100.00
21357;BME280;10836;53.068;18.234;2023-03-26T06:56:16;99469.31;;;6.37;100.00
21357;BME280;10836;53.068;18.234;2023-03-26T06:58:59;99504.00;;;6.40;100.00
21357;BME280;10836;53.068;18.234;2023-03-26T07:01:44;99507.78;;;6.49;100.00
21357;BME280;10836;53.068;18.234;2023-03-26T07:04:31;99512.06;;;6.60;100.00
21357;BME280;10836;53.068;18.234;2023-03-26T07:07:16;99510.44;;;6.59;100.00
21357;BME280;10836;53.068;18.234;2023-03-26T07:10:05;99510.97;;;6.66;100.00
21357;BME280;10836;53.068;18.234;2023-03-26T07:12:44;99510.97;;;6.66;100.00
21357;BME280;10836;53.068;18.234;2023-03-26T07:15:34;99514.69;;;6.86;100.00
21357;BME280;10836;53.068;18.234;2023-03-26T07:18:12;99514.63;;;6.96;100.00
21357;BME280;10836;53.068;18.234;2023-03-26T07:20:40;99524.84;;;7.19;100.00
21357;BME280;10836;53.068;18.234;2023-03-26T07:23:09;99520.19;;;7.98;100.00
21357;BME280;10836;53.068;18.234;2023-03-26T07:25:57;99522.03;;;8.37;100.00
21357;BME280;10836;53.068;18.234;2023-03-26T07:29:06;99534.69;;;8.51;100.00
21357;BME280;10836;53.068;18.234;2023-03-26T07:32:02;99526.81;;;9.91;100.00
21357;BME280;10836;53.068;18.234;2023-03-26T07:41:14;99534.44;;;11.59;100.00
21357;BME280;10836;53.068;18.234;2023-03-26T07:46:55;99523.00;;;13.51;91.71
21357;BME280;10836;53.068;18.234;2023-03-26T07:49:38;99531.63;;;14.31;81.60
21357;BME280;10836;53.068;18.234;2023-03-26T07:52:29;99524.25;;;13.28;87.07
21357;BME280;10836;53.068;18.234;2023-03-26T07:55:15;99527.91;;;11.82;96.82
21357;BME280;10836;53.068;18.234;2023-03-26T08:04:43;99534.09;;;9.21;100.00
21357;BME280;10836;53.068;18.234;2023-03-26T08:07:59;99535.63;;;8.65;100.00
21357;BME280;10836;53.068;18.234;2023-03-26T08:10:42;99532.81;;;8.71;100.00
21357;BME280;10836;53.068;18.234;2023-03-26T08:13:27;99528.09;;;8.57;100.00
21357;BME280;10836;53.068;18.234;2023-03-26T08:21:41;99536.06;;;8.73;100.00
21357;BME280;10836;53.068;18.234;2023-03-26T08:24:31;99536.53;;;8.80;100.00
21357;BME280;10836;53.068;18.234;2023-03-26T08:27:15;99531.78;;;8.66;100.00
21357;BME280;10836;53.068;18.234;2023-03-26T08:30:00;99535.19;;;8.24;100.00
21357;BME280;10836;53.068;18.234;2023-03-26T08:32:30;99538.78;;;8.20;100.00
21357;BME280;10836;53.068;18.234;2023-03-26T08:34:57;99536.00;;;8.25;100.00
21357;BME280;10836;53.068;18.234;2023-03-26T08:37:26;99537.84;;;8.34;100.00
21357;BME280;10836;53.068;18.234;2023-03-26T08:39:53;99529.91;;;8.38;100.00
21357;BME280;10836;53.068;18.234;2023-03-26T08:51:44;99556.06;;;8.00;100.00
21357;BME280;10836;53.068;18.234;2023-03-26T08:57:30;99546.66;;;7.87;100.00
21357;BME280;10836;53.068;18.234;2023-03-26T09:11:30;99565.59;;;9.08;100.00
21357;BME280;10836;53.068;18.234;2023-03-26T09:20:01;99561.84;;;8.56;100.00
21357;BME280;10836;53.068;18.234;2023-03-26T09:25:47;99565.56;;;8.31;100.00
21357;BME280;10836;53.068;18.234;2023-03-26T09:31:33;99561.09;;;8.75;100.00
21357;BME280;10836;53.068;18.234;2023-03-26T09:45:00;99582.53;;;7.84;100.00
21357;BME280;10836;53.068;18.234;2023-03-26T09:53:39;99578.06;;;8.04;100.00
21357;BME280;10836;53.068;18.234;2023-03-26T09:59:18;99576.16;;;8.91;100.00
21357;BME280;10836;53.068;18.234;2023-03-26T10:02:03;99567.44;;;10.72;100.00
21357;BME280;10836;53.068;18.234;2023-03-26T10:07:47;99564.31;;;12.14;86.14
21357;BME280;10836;53.068;18.234;2023-03-26T10:10:41;99572.47;;;10.64;87.50
21357;BME280;10836;53.068;18.234;2023-03-26T10:19:01;99568.63;;;10.00;96.55
21357;BME280;10836;53.068;18.234;2023-03-26T10:21:44;99575.44;;;9.84;94.44
21357;BME280;10836;53.068;18.234;2023-03-26T10:32:41;99579.22;;;9.08;98.38
21357;BME280;10836;53.068;18.234;2023-03-26T10:40:32;99582.25;;;9.25;100.00
21357;BME280;10836;53.068;18.234;2023-03-26T10:45:58;99568.53;;;10.98;90.02
21357;BME280;10836;53.068;18.234;2023-03-26T10:54:01;99579.25;;;14.70;69.06
21357;BME280;10836;53.068;18.234;2023-03-26T10:56:39;99571.25;;;14.13;68.15
21357;BME280;10836;53.068;18.234;2023-03-26T10:59:13;99559.94;;;13.37;69.63
21357;BME280;10836;53.068;18.234;2023-03-26T11:07:21;99575.22;;;10.92;74.68
21357;BME280;10836;53.068;18.234;2023-03-26T11:10:08;99593.84;;;10.30;83.04
21357;BME280;10836;53.068;18.234;2023-03-26T11:15:52;99588.44;;;8.64;100.00
21357;BME280;10836;53.068;18.234;2023-03-26T11:18:38;99585.16;;;9.34;100.00
21357;BME280;10836;53.068;18.234;2023-03-26T11:21:17;99581.44;;;11.47;100.00
21357;BME280;10836;53.068;18.234;2023-03-26T11:23:58;99579.91;;;13.46;91.18
21357;BME280;10836;53.068;18.234;2023-03-26T11:32:02;99578.63;;;15.31;70.02
21357;BME280;10836;53.068;18.234;2023-03-26T11:37:30;99575.25;;;14.58;69.64
21357;BME280;10836;53.068;18.234;2023-03-26T11:40:02;99565.31;;;14.75;75.21
21357;BME280;10836;53.068;18.234;2023-03-26T11:42:32;99573.44;;;14.62;71.43
21357;BME280;10836;53.068;18.234;2023-03-26T11:45:05;99569.31;;;12.96;75.12
21357;BME280;10836;53.068;18.234;2023-03-26T11:47:39;99560.66;;;12.72;73.01
21357;BME280;10836;53.068;18.234;2023-03-26T11:50:15;99562.19;;;12.55;76.12
21357;BME280;10836;53.068;18.234;2023-03-26T11:52:44;99556.13;;;12.14;76.32
21357;BME280;10836;53.068;18.234;2023-03-26T11:55:13;99563.41;;;11.60;80.41
21357;BME280;10836;53.068;18.234;2023-03-26T11:57:48;99547.44;;;11.40;76.76
21357;BME280;10836;53.068;18.234;2023-03-26T12:00:21;99554.38;;;11.23;83.72
21357;BME280;10836;53.068;18.234;2023-03-26T12:02:48;99544.06;;;10.93;81.02
21357;BME280;10836;53.068;18.234;2023-03-26T12:05:26;99542.84;;;10.99;80.05
21357;BME280;10836;53.068;18.234;2023-03-26T12:07:59;99540.41;;;10.97;81.49
21357;BME280;10836;53.068;18.234;2023-03-26T12:13:01;99544.88;;;10.80;79.20
21357;BME280;10836;53.068;18.234;2023-03-26T12:15:29;99555.81;;;10.80;83.34
21357;BME280;10836;53.068;18.234;2023-03-26T12:18:17;99563.81;;;11.67;79.40
21357;BME280;10836;53.068;18.234;2023-03-26T12:20:45;99561.72;;;11.86;77.59
21357;BME280;10836;53.068;18.234;2023-03-26T12:23:35;99556.09;;;11.69;77.22
21357;BME280;10836;53.068;18.234;2023-03-26T12:26:17;99552.66;;;11.63;74.66
21357;BME280;10836;53.068;18.234;2023-03-26T12:28:49;99565.59;;;11.22;76.33
21357;BME280;10836;53.068;18.234;2023-03-26T12:31:17;99576.16;;;10.41;85.97
21357;BME280;10836;53.068;18.234;2023-03-26T12:34:02;99581.09;;;10.07;94.97
21357;BME280;10836;53.068;18.234;2023-03-26T12:36:31;99603.00;;;9.21;100.00
21357;BME280;10836;53.068;18.234;2023-03-26T12:39:21;99596.63;;;8.59;100.00
21357;BME280;10836;53.068;18.234;2023-03-26T12:42:32;99596.44;;;8.17;100.00
21357;BME280;10836;53.068;18.234;2023-03-26T12:45:22;99596.81;;;8.05;100.00
21357;BME280;10836;53.068;18.234;2023-03-26T12:47:51;99589.00;;;7.93;100.00
21357;BME280;10836;53.068;18.234;2023-03-26T12:51:11;99586.81;;;7.95;100.00
21357;BME280;10836;53.068;18.234;2023-03-26T12:53:57;99583.63;;;7.83;100.00
21357;BME280;10836;53.068;18.234;2023-03-26T13:02:17;99573.81;;;8.55;100.00
21357;BME280;10836;53.068;18.234;2023-03-26T13:05:07;99577.31;;;9.09;100.00
21357;BME280;10836;53.068;18.234;2023-03-26T13:08:13;99585.16;;;9.34;100.00
21357;BME280;10836;53.068;18.234;2023-03-26T13:13:31;99569.81;;;11.42;100.00
21357;BME280;10836;53.068;18.234;2023-03-26T13:19:05;99571.91;;;13.10;87.47
21357;BME280;10836;53.068;18.234;2023-03-26T13:22:06;99569.28;;;13.36;85.27
21357;BME280;10836;53.068;18.234;2023-03-26T13:27:41;99566.19;;;14.41;79.10
21357;BME280;10836;53.068;18.234;2023-03-26T13:30:20;99562.22;;;13.95;76.79
21357;BME280;10836;53.068;18.234;2023-03-26T13:35:58;99564.16;;;12.63;80.57
21357;BME280;10836;53.068;18.234;2023-03-26T13:41:38;99564.44;;;12.53;81.71
21357;BME280;10836;53.068;18.234;2023-03-26T13:47:02;99551.28;;;11.52;88.21
21357;BME280;10836;53.068;18.234;2023-03-26T13:49:41;99549.03;;;11.54;87.35
21357;BME280;10836;53.068;18.234;2023-03-26T13:52:12;99555.28;;;11.69;85.59
21357;BME280;10836;53.068;18.234;2023-03-26T13:57:39;99540.88;;;11.27;81.66
21357;BME280;10836;53.068;18.234;2023-03-26T14:00:14;99544.78;;;11.12;80.19
21357;BME280;10836;53.068;18.234;2023-03-26T14:02:43;99546.50;;;10.81;81.02
21357;BME280;10836;53.068;18.234;2023-03-26T14:05:23;99547.78;;;10.83;82.64
21357;BME280;10836;53.068;18.234;2023-03-26T14:08:14;99545.88;;;10.84;82.46
21357;BME280;10836;53.068;18.234;2023-03-26T14:10:47;99542.25;;;10.75;82.05
21357;BME280;10836;53.068;18.234;2023-03-26T14:13:37;99545.28;;;10.59;78.09
21357;BME280;10836;53.068;18.234;2023-03-26T14:16:13;99547.38;;;10.35;80.80
21357;BME280;10836;53.068;18.234;2023-03-26T14:19:02;99545.44;;;10.36;82.79
21357;BME280;10836;53.068;18.234;2023-03-26T14:21:49;99547.44;;;10.30;83.73
21357;BME280;10836;53.068;18.234;2023-03-26T14:27:04;99549.38;;;10.43;85.91
21357;BME280;10836;53.068;18.234;2023-03-26T14:36:42;99535.97;;;10.60;78.41
21357;BME280;10836;53.068;18.234;2023-03-26T14:39:27;99535.00;;;11.33;78.32
21357;BME280;10836;53.068;18.234;2023-03-26T14:42:11;99535.00;;;11.83;73.02
21357;BME280;10836;53.068;18.234;2023-03-26T14:47:26;99540.22;;;11.21;69.29
21357;BME280;10836;53.068;18.234;2023-03-26T14:52:48;99531.47;;;11.33;69.26
21357;BME280;10836;53.068;18.234;2023-03-26T14:58:14;99541.88;;;11.45;71.73
21357;BME280;10836;53.068;18.234;2023-03-26T15:12:12;99545.19;;;11.91;70.23
21357;BME280;10836;53.068;18.234;2023-03-26T15:17:37;99539.66;;;12.05;69.51
21357;BME280;10836;53.068;18.234;2023-03-26T15:23:32;99535.81;;;11.70;71.13
21357;BME280;10836;53.068;18.234;2023-03-26T15:35:18;99533.94;;;10.52;68.01
21357;BME280;10836;53.068;18.234;2023-03-26T15:37:58;99541.41;;;10.33;70.26
21357;BME280;10836;53.068;18.234;2023-03-26T15:43:20;99557.03;;;10.09;76.57
21357;BME280;10836;53.068;18.234;2023-03-26T15:51:49;99560.66;;;9.53;86.33
21357;BME280;10836;53.068;18.234;2023-03-26T15:54:20;99556.59;;;9.50;87.29
21357;BME280;10836;53.068;18.234;2023-03-26T16:00:24;99560.94;;;9.51;88.93
21357;BME280;10836;53.068;18.234;2023-03-26T16:06:10;99561.00;;;9.84;87.94
21357;BME280;10836;53.068;18.234;2023-03-26T16:16:57;99564.25;;;9.67;88.32
21357;BME280;10836;53.068;18.234;2023-03-26T16:19:32;99559.75;;;9.39;88.92
21357;BME280;10836;53.068;18.234;2023-03-26T16:22:05;99556.97;;;9.44;87.75
21357;BME280;10836;53.068;18.234;2023-03-26T16:24:35;99560.75;;;9.24;87.97
21357;BME280;10836;53.068;18.234;2023-03-26T16:27:04;99561.00;;;9.27;85.99
21357;BME280;10836;53.068;18.234;2023-03-26T16:32:35;99572.75;;;9.23;87.81
21357;BME280;10836;53.068;18.234;2023-03-26T16:37:41;99576.50;;;9.08;89.08
21357;BME280;10836;53.068;18.234;2023-03-26T16:42:47;99587.78;;;9.20;86.89
21357;BME280;10836;53.068;18.234;2023-03-26T16:45:57;99585.41;;;9.14;87.91
21357;BME280;10836;53.068;18.234;2023-03-26T16:48:39;99587.81;;;9.15;89.36
21357;BME280;10836;53.068;18.234;2023-03-26T16:59:43;99592.97;;;8.98;91.89
21357;BME280;10836;53.068;18.234;2023-03-26T17:02:33;99595.88;;;8.78;93.31
21357;BME280;10836;53.068;18.234;2023-03-26T17:07:43;99587.00;;;8.43;94.85
21357;BME280;10836;53.068;18.234;2023-03-26T17:10:18;99590.38;;;8.25;97.14
21357;BME280;10836;53.068;18.234;2023-03-26T17:15:48;99593.03;;;8.01;98.74
21357;BME280;10836;53.068;18.234;2023-03-26T17:18:39;99603.75;;;7.82;98.92
21357;BME280;10836;53.068;18.234;2023-03-26T17:24:38;99610.66;;;7.70;99.70
21357;BME280;10836;53.068;18.234;2023-03-26T17:31:02;99619.81;;;7.34;100.00
21357;BME280;10836;53.068;18.234;2023-03-26T17:33:37;99613.34;;;7.20;100.00
21357;BME280;10836;53.068;18.234;2023-03-26T17:41:06;99613.75;;;6.73;100.00
21357;BME280;10836;53.068;18.234;2023-03-26T17:43:47;99610.25;;;6.57;100.00
21357;BME280;10836;53.068;18.234;2023-03-26T17:46:26;99623.31;;;6.45;100.00
21357;BME280;10836;53.068;18.234;2023-03-26T17:48:59;99617.34;;;6.28;100.00
21357;BME280;10836;53.068;18.234;2023-03-26T17:51:37;99624.94;;;6.06;100.00
21357;BME280;10836;53.068;18.234;2023-03-26T17:54:15;99626.56;;;5.96;100.00
21357;BME280;10836;53.068;18.234;2023-03-26T17:56:45;99628.66;;;5.74;100.00
21357;BME280;10836;53.068;18.234;2023-03-26T17:59:17;99620.78;;;5.62;100.00
21357;BME280;10836;53.068;18.234;2023-03-26T18:01:58;99621.50;;;5.32;100.00
21357;BME280;10836;53.068;18.234;2023-03-26T18:04:30;99628.75;;;5.22;100.00
21357;BME280;10836;53.068;18.234;2023-03-26T18:07:43;99621.91;;;4.99;100.00